createdAt,value
2023-11-16T00:01:28.497Z,1.57
2023-11-16T00:03:55.891Z,1.50
2023-11-16T00:06:23.273Z,1.40
2023-11-16T00:08:50.291Z,1.40
2023-11-16T00:11:18.859Z,1.30
2023-11-16T00:13:47.349Z,1.30
2023-11-16T00:16:17.830Z,1.60
2023-11-16T00:18:44.949Z,1.83
2023-11-16T00:21:11.816Z,1.63
2023-11-16T00:23:38.722Z,1.40
2023-11-16T00:26:05.738Z,1.60
2023-11-16T00:28:32.492Z,1.40
2023-11-16T00:30:59.245Z,1.43
2023-11-16T00:33:27.289Z,1.40
2023-11-16T00:35:59.630Z,1.30
2023-11-16T00:38:29.518Z,1.47
2023-11-16T00:40:56.561Z,1.73
2023-11-16T00:43:25.101Z,2.07
2023-11-16T00:45:53.275Z,1.40
2023-11-16T00:48:20.295Z,1.50
2023-11-16T00:50:47.079Z,1.90
2023-11-16T00:53:15.122Z,1.47
2023-11-16T00:55:42.510Z,1.90
2023-11-16T00:58:09.675Z,2.00
2023-11-16T01:00:36.673Z,2.23
2023-11-16T01:03:07.430Z,1.37
2023-11-16T01:05:34.581Z,1.67
2023-11-16T01:08:01.363Z,1.60
2023-11-16T01:10:30.933Z,1.67
2023-11-16T01:12:57.995Z,1.43
2023-11-16T01:15:26.350Z,1.80
2023-11-16T01:17:53.428Z,1.67
2023-11-16T01:20:20.879Z,1.30
2023-11-16T01:23:10.395Z,3.80
2023-11-16T01:25:41.820Z,1.80
2023-11-16T01:28:10.921Z,1.97
2023-11-16T01:30:40.894Z,1.70
2023-11-16T01:33:09.677Z,1.27
2023-11-16T01:35:38.249Z,1.47
2023-11-16T01:38:07.092Z,1.53
2023-11-16T01:40:34.756Z,1.63
2023-11-16T01:43:02.111Z,1.77
2023-11-16T01:45:30.473Z,1.40
2023-11-16T01:48:07.779Z,1.40
2023-11-16T01:50:37.486Z,1.73
2023-11-16T01:53:11.936Z,1.50
2023-11-16T01:55:41.972Z,1.50
2023-11-16T01:58:10.582Z,1.60
2023-11-16T02:00:38.175Z,1.30
2023-11-16T02:03:06.631Z,1.50
2023-11-16T02:05:35.138Z,1.70
2023-11-16T02:08:05.120Z,1.40
2023-11-16T02:10:32.528Z,1.60
2023-11-16T02:13:06.570Z,1.73
2023-11-16T02:15:34.045Z,1.50
2023-11-16T02:18:00.983Z,1.60
2023-11-16T02:20:30.194Z,2.03
2023-11-16T02:22:57.232Z,1.37
2023-11-16T02:25:26.959Z,1.50
2023-11-16T02:27:55.634Z,1.97
2023-11-16T02:30:23.402Z,1.93
2023-11-16T02:32:51.438Z,1.90
2023-11-16T02:35:18.341Z,1.53
2023-11-16T02:37:45.130Z,2.10
2023-11-16T02:40:12.446Z,1.87
2023-11-16T02:42:39.198Z,1.73
2023-11-16T02:45:07.960Z,1.60
2023-11-16T02:47:35.005Z,1.53
2023-11-16T02:50:01.983Z,1.73
2023-11-16T02:52:28.805Z,1.60
2023-11-16T02:54:55.649Z,1.50
2023-11-16T02:57:23.174Z,1.70
2023-11-16T02:59:51.010Z,1.40
2023-11-16T03:02:19.492Z,1.70
2023-11-16T03:04:46.280Z,1.77
2023-11-16T03:07:26.741Z,1.77
2023-11-16T03:09:59.614Z,2.03
2023-11-16T03:12:26.545Z,1.53
2023-11-16T03:14:54.467Z,4.97
2023-11-16T03:17:24.457Z,3.50
2023-11-16T03:19:51.375Z,3.57
2023-11-16T03:22:18.139Z,4.93
2023-11-16T03:24:44.950Z,5.40
2023-11-16T03:27:11.883Z,4.87
2023-11-16T03:29:42.505Z,3.67
2023-11-16T03:32:10.854Z,2.80
2023-11-16T03:34:38.066Z,2.20
2023-11-16T03:37:05.044Z,2.27
2023-11-16T03:39:32.821Z,2.10
2023-11-16T03:41:59.962Z,2.17
2023-11-16T03:44:30.193Z,1.97
2023-11-16T03:46:57.765Z,1.93
2023-11-16T03:49:25.478Z,1.87
2023-11-16T03:51:52.573Z,2.17
2023-11-16T03:54:19.567Z,1.87
2023-11-16T03:56:46.409Z,1.70
2023-11-16T03:59:17.269Z,2.20
2023-11-16T04:01:45.417Z,1.93
2023-11-16T04:04:12.340Z,2.37
2023-11-16T04:06:40.176Z,1.70
2023-11-16T04:09:08.485Z,2.13
2023-11-16T04:11:39.825Z,1.70
2023-11-16T04:14:08.396Z,1.60
2023-11-16T04:16:36.819Z,1.63
2023-11-16T04:19:05.414Z,1.67
2023-11-16T04:21:32.764Z,1.67
2023-11-16T04:24:00.798Z,1.23
2023-11-16T04:26:37.730Z,1.60
2023-11-16T04:29:06.344Z,2.03
2023-11-16T04:31:36.347Z,2.10
2023-11-16T04:34:03.325Z,1.90
2023-11-16T04:36:33.160Z,2.03
2023-11-16T04:39:01.338Z,1.73
2023-11-16T04:41:30.026Z,2.33
2023-11-16T04:43:57.239Z,2.53
2023-11-16T04:46:28.040Z,2.17
2023-11-16T04:48:56.473Z,1.73
2023-11-16T04:51:25.474Z,2.20
2023-11-16T04:53:52.421Z,2.50
2023-11-16T04:56:19.321Z,1.60
2023-11-16T04:58:47.198Z,1.67
2023-11-16T05:01:17.921Z,1.70
2023-11-16T05:03:48.948Z,2.17
2023-11-16T05:06:16.506Z,1.60
2023-11-16T05:08:43.853Z,1.70
2023-11-16T05:11:10.676Z,1.67
2023-11-16T05:13:37.475Z,1.60
2023-11-16T05:16:05.876Z,2.20
2023-11-16T05:18:33.118Z,2.03
2023-11-16T05:21:02.623Z,1.80
2023-11-16T05:23:29.536Z,1.97
2023-11-16T05:25:57.942Z,1.90
2023-11-16T05:28:25.178Z,1.83
2023-11-16T05:30:52.545Z,1.97
2023-11-16T05:33:20.644Z,1.93
2023-11-16T05:35:49.729Z,2.00
2023-11-16T05:38:19.680Z,1.73
2023-11-16T05:40:46.440Z,2.40
2023-11-16T05:43:13.409Z,2.07
2023-11-16T05:45:42.952Z,1.80
2023-11-16T05:48:10.395Z,2.17
2023-11-16T05:50:38.137Z,2.30
2023-11-16T05:53:10.137Z,2.60
2023-11-16T05:55:37.383Z,1.90
2023-11-16T05:58:06.905Z,2.00
2023-11-16T06:00:34.926Z,1.97
2023-11-16T06:03:01.892Z,2.10
2023-11-16T06:05:29.402Z,2.00
2023-11-16T06:07:56.573Z,2.20
2023-11-16T06:10:26.120Z,1.63
2023-11-16T06:12:59.026Z,1.80
2023-11-16T06:15:32.227Z,4.47
2023-11-16T06:18:02.115Z,21.67
2023-11-16T06:20:29.737Z,15.37
2023-11-16T06:22:57.823Z,8.07
2023-11-16T06:25:24.709Z,7.70
2023-11-16T06:27:51.939Z,3.93
2023-11-16T06:30:20.009Z,3.57
2023-11-16T06:32:47.751Z,2.20
2023-11-16T06:35:15.263Z,2.17
2023-11-16T06:37:42.197Z,2.10
2023-11-16T06:40:12.019Z,2.00
2023-11-16T06:42:39.344Z,1.73
2023-11-16T06:45:08.035Z,1.43
2023-11-16T06:47:36.017Z,1.87
2023-11-16T06:50:04.995Z,1.80
2023-11-16T06:52:31.975Z,1.77
2023-11-16T06:54:58.839Z,1.50
2023-11-16T06:57:28.439Z,2.33
2023-11-16T06:59:55.477Z,3.10
2023-11-16T07:02:23.625Z,3.67
2023-11-16T07:04:50.858Z,3.80
2023-11-16T07:07:18.345Z,3.20
2023-11-16T07:09:47.168Z,4.47
2023-11-16T07:12:16.261Z,3.90
2023-11-16T07:14:48.198Z,3.27
2023-11-16T07:17:20.804Z,3.00
2023-11-16T07:19:49.039Z,3.53
2023-11-16T07:22:15.887Z,3.00
2023-11-16T07:24:45.722Z,3.37
2023-11-16T07:27:13.871Z,4.13
2023-11-16T07:29:45.149Z,4.37
2023-11-16T07:32:13.083Z,3.93
2023-11-16T07:34:43.171Z,3.80
2023-11-16T07:37:12.787Z,3.60
2023-11-16T07:39:40.623Z,3.53
2023-11-16T07:42:08.907Z,3.60
2023-11-16T07:44:35.716Z,4.40
2023-11-16T07:47:02.580Z,6.20
2023-11-16T07:49:29.483Z,4.80
2023-11-16T07:51:56.787Z,3.43
2023-11-16T07:54:23.712Z,2.83
2023-11-16T07:56:56.405Z,2.70
2023-11-16T07:59:32.361Z,2.27
2023-11-16T08:02:02.278Z,2.33
2023-11-16T08:04:30.989Z,2.00
2023-11-16T08:07:01.188Z,2.83
2023-11-16T08:09:28.265Z,2.80
2023-11-16T08:11:55.296Z,2.30
2023-11-16T08:14:26.808Z,2.40
2023-11-16T08:16:58.157Z,2.57
2023-11-16T08:19:32.898Z,2.80
2023-11-16T08:22:03.012Z,2.40
2023-11-16T08:24:30.005Z,2.87
2023-11-16T08:27:00.325Z,2.90
2023-11-16T08:29:27.355Z,3.30
2023-11-16T08:31:57.705Z,2.63
2023-11-16T08:34:29.265Z,2.63
2023-11-16T08:36:56.977Z,2.80
2023-11-16T08:39:24.740Z,2.53
2023-11-16T08:41:52.199Z,2.70
2023-11-16T08:44:20.102Z,2.50
2023-11-16T08:46:53.683Z,2.80
2023-11-16T08:49:24.292Z,2.20
2023-11-16T08:52:00.460Z,3.10
2023-11-16T08:54:30.437Z,3.90
2023-11-16T08:56:58.706Z,2.80
2023-11-16T08:59:26.078Z,2.30
2023-11-16T09:01:53.227Z,3.00
2023-11-16T09:04:22.287Z,2.37
2023-11-16T09:06:51.621Z,2.90
2023-11-16T09:09:37.557Z,2.53
2023-11-16T09:12:10.696Z,2.13
2023-11-16T09:14:37.617Z,2.10
2023-11-16T09:19:34.366Z,2.50
2023-11-16T09:22:04.088Z,2.70
2023-11-16T09:24:31.297Z,2.30
2023-11-16T09:26:59.342Z,2.53
2023-11-16T09:29:29.326Z,2.30
2023-11-16T09:31:56.212Z,2.60
2023-11-16T09:34:23.756Z,2.00
2023-11-16T09:36:51.451Z,2.10
2023-11-16T09:39:18.356Z,2.83
2023-11-16T09:41:50.412Z,2.00
2023-11-16T09:44:19.138Z,3.40
2023-11-16T09:46:53.868Z,2.00
2023-11-16T09:49:25.643Z,2.43
2023-11-16T09:51:53.061Z,2.33
2023-11-16T09:54:23.943Z,2.10
2023-11-16T09:56:54.403Z,2.60
2023-11-16T09:59:35.540Z,2.70
2023-11-16T10:02:11.183Z,2.43
2023-11-16T10:04:44.967Z,2.23
2023-11-16T10:07:17.964Z,2.30
2023-11-16T10:09:45.590Z,3.10
2023-11-16T10:12:13.059Z,2.90
2023-11-16T10:14:54.151Z,2.70
2023-11-16T10:17:23.170Z,2.50
2023-11-16T10:19:51.798Z,2.47
2023-11-16T10:22:18.783Z,2.30
2023-11-16T10:24:46.104Z,2.20
2023-11-16T10:27:13.248Z,2.20
2023-11-16T10:29:43.120Z,2.40
2023-11-16T10:32:13.340Z,2.13
2023-11-16T10:34:41.202Z,2.20
2023-11-16T10:37:08.655Z,2.60
2023-11-16T10:39:36.080Z,2.40
2023-11-16T10:42:03.484Z,2.87
2023-11-16T10:48:15.096Z,3.53
2023-11-16T10:50:43.806Z,2.80
2023-11-16T10:53:24.906Z,3.07
2023-11-16T10:55:53.164Z,2.70
2023-11-16T10:58:26.644Z,2.60
2023-11-16T11:00:54.310Z,2.20
2023-11-16T11:03:22.284Z,2.30
2023-11-16T11:05:53.604Z,2.73
2023-11-16T11:08:21.344Z,2.70
2023-11-16T11:10:48.962Z,2.57
2023-11-16T11:13:28.305Z,2.33
2023-11-16T11:16:00.592Z,2.00
2023-11-16T11:18:28.574Z,2.50
2023-11-16T11:21:18.148Z,2.63
2023-11-16T11:23:44.927Z,2.63
2023-11-16T11:26:14.742Z,4.07
2023-11-16T11:28:42.951Z,3.80
2023-11-16T11:31:11.798Z,2.60
2023-11-16T11:33:40.853Z,2.37
2023-11-16T11:36:11.030Z,3.10
2023-11-16T11:38:43.908Z,2.40
2023-11-16T11:41:13.993Z,2.50
2023-11-16T11:43:42.126Z,5.00
2023-11-16T11:46:21.673Z,2.63
2023-11-16T11:48:50.073Z,2.70
2023-11-16T11:51:20.974Z,4.70
2023-11-16T11:53:49.860Z,3.77
2023-11-16T11:56:17.160Z,4.20
2023-11-16T11:58:44.350Z,3.80
2023-11-16T12:01:12.575Z,4.03
2023-11-16T12:03:56.582Z,4.30
2023-11-16T12:06:28.968Z,3.30
2023-11-16T12:08:56.303Z,3.97
2023-11-16T12:11:27.089Z,3.60
2023-11-16T12:13:55.329Z,4.07
2023-11-16T12:16:25.130Z,3.83
2023-11-16T12:18:56.087Z,3.83
2023-11-16T12:21:24.595Z,4.33
2023-11-16T12:23:54.979Z,3.63
2023-11-16T12:26:30.625Z,3.90
2023-11-16T12:28:58.664Z,3.40
2023-11-16T12:31:28.272Z,3.10
2023-11-16T12:33:56.977Z,3.13
2023-11-16T12:36:29.598Z,3.60
2023-11-16T12:38:56.386Z,3.80
2023-11-16T12:41:25.727Z,4.40
2023-11-16T12:45:07.474Z,5.43
2023-11-16T12:47:37.956Z,3.73
2023-11-16T12:50:09.014Z,3.70
2023-11-16T12:52:37.131Z,5.03
2023-11-16T12:55:05.534Z,3.30
2023-11-16T12:57:32.796Z,3.73
2023-11-16T13:00:02.293Z,3.77
2023-11-16T13:02:29.349Z,3.53
2023-11-16T13:04:57.842Z,3.33
2023-11-16T13:07:25.313Z,3.77
2023-11-16T13:09:52.115Z,3.97
2023-11-16T13:12:22.870Z,3.90
2023-11-16T13:14:50.816Z,3.90
2023-11-16T13:17:17.658Z,3.20
2023-11-16T13:19:45.402Z,3.33
2023-11-16T13:22:12.149Z,4.20
2023-11-16T13:24:40.624Z,2.97
2023-11-16T13:27:07.673Z,4.20
2023-11-16T13:29:34.546Z,3.20
2023-11-16T13:32:01.397Z,3.77
2023-11-16T13:34:28.250Z,4.80
2023-11-16T13:36:56.853Z,4.20
2023-11-16T13:39:23.758Z,4.30
2023-11-16T13:41:51.034Z,7.30
2023-11-16T13:44:19.163Z,6.27
2023-11-16T13:46:46.352Z,6.63
2023-11-16T13:49:14.478Z,5.83
2023-11-16T13:51:41.404Z,5.83
2023-11-16T13:54:08.232Z,5.63
2023-11-16T13:56:35.522Z,7.50
2023-11-16T13:59:02.337Z,8.10
2023-11-16T14:01:30.562Z,5.10
2023-11-16T14:03:57.553Z,5.60
2023-11-16T14:06:28.644Z,5.37
2023-11-16T14:08:55.449Z,4.90
2023-11-16T14:11:22.425Z,2.87
2023-11-16T14:13:49.328Z,2.00
2023-11-16T14:16:16.601Z,4.20
2023-11-16T14:18:43.655Z,2.37
2023-11-16T14:21:10.986Z,3.00
2023-11-16T14:23:41.637Z,2.77
2023-11-16T14:26:12.024Z,2.50
2023-11-16T14:28:38.866Z,3.10
2023-11-16T14:31:06.957Z,2.20
2023-11-16T14:33:35.042Z,2.00
2023-11-16T14:36:02.059Z,2.13
2023-11-16T14:38:28.917Z,2.40
2023-11-16T14:40:55.689Z,3.20
2023-11-16T14:43:22.480Z,2.43
2023-11-16T14:45:49.397Z,2.60
2023-11-16T14:48:16.376Z,4.60
2023-11-16T14:50:43.404Z,4.20
2023-11-16T14:53:11.885Z,3.50
2023-11-16T14:55:42.112Z,2.23
2023-11-16T14:58:08.943Z,2.40
2023-11-16T15:00:35.809Z,2.70
2023-11-16T15:03:03.620Z,2.77
2023-11-16T15:05:37.026Z,4.00
2023-11-16T15:08:05.999Z,3.10
2023-11-16T15:10:33.033Z,3.83
2023-11-16T15:12:59.946Z,3.30
2023-11-16T15:15:26.724Z,3.50
2023-11-16T15:17:53.587Z,3.23
2023-11-16T15:20:26.762Z,4.17
2023-11-16T15:22:57.331Z,3.17
2023-11-16T15:25:24.572Z,3.13
2023-11-16T15:27:52.259Z,3.47
2023-11-16T15:30:20.573Z,3.93
2023-11-16T15:32:48.078Z,3.93
2023-11-16T15:35:15.708Z,3.77
2023-11-16T15:37:42.548Z,3.20
2023-11-16T15:40:11.671Z,4.20
2023-11-16T15:42:38.954Z,3.90
2023-11-16T15:45:07.727Z,3.83
2023-11-16T15:47:35.065Z,10.23
2023-11-16T15:50:02.043Z,4.30
2023-11-16T15:52:28.834Z,3.77
2023-11-16T15:54:55.792Z,3.33
2023-11-16T15:57:28.100Z,3.70
2023-11-16T15:59:59.057Z,3.43
2023-11-16T16:02:31.045Z,3.03
2023-11-16T16:05:00.786Z,3.53
2023-11-16T16:07:28.111Z,3.00
2023-11-16T16:09:54.928Z,2.87
2023-11-16T16:12:22.160Z,3.10
2023-11-16T16:14:48.942Z,3.00
2023-11-16T16:17:15.835Z,2.93
2023-11-16T16:19:42.722Z,2.60
2023-11-16T16:22:09.778Z,3.20
2023-11-16T16:24:36.970Z,3.40
2023-11-16T16:27:08.853Z,3.17
2023-11-16T16:29:37.125Z,4.03
2023-11-16T16:32:05.498Z,3.07
2023-11-16T16:34:32.405Z,4.07
2023-11-16T16:36:59.325Z,3.23
2023-11-16T16:39:26.280Z,3.03
2023-11-16T16:41:54.662Z,3.20
2023-11-16T16:44:21.522Z,3.00
2023-11-16T16:46:48.849Z,3.23
2023-11-16T16:49:16.576Z,3.10
2023-11-16T16:51:44.812Z,4.17
2023-11-16T16:54:14.985Z,5.73
2023-11-16T16:56:42.464Z,3.73
2023-11-16T16:59:10.292Z,3.97
2023-11-16T17:01:38.275Z,3.30
2023-11-16T17:04:07.300Z,4.30
2023-11-16T17:06:34.520Z,4.30
2023-11-16T17:09:01.629Z,2.83
2023-11-16T17:11:28.583Z,2.50
2023-11-16T17:13:56.510Z,2.40
2023-11-16T17:16:23.751Z,2.67
2023-11-16T17:18:51.222Z,2.60
2023-11-16T17:21:22.649Z,2.30
2023-11-16T17:23:55.293Z,2.10
2023-11-16T17:26:22.946Z,2.27
2023-11-16T17:28:50.217Z,3.33
2023-11-16T17:31:18.273Z,4.00
2023-11-16T17:33:45.576Z,4.17
2023-11-16T17:36:12.581Z,3.30
2023-11-16T17:38:39.465Z,2.50
2023-11-16T17:41:08.066Z,3.17
2023-11-16T17:43:41.336Z,2.83
2023-11-16T17:46:08.999Z,2.40
2023-11-16T17:48:36.116Z,2.20
2023-11-16T17:51:05.507Z,3.00
2023-11-16T17:53:33.371Z,3.60
2023-11-16T17:56:01.545Z,5.10
2023-11-16T17:58:29.665Z,4.37
2023-11-16T18:00:56.586Z,4.47
2023-11-16T18:03:23.402Z,4.17
2023-11-16T18:05:50.277Z,4.50
2023-11-16T18:08:17.200Z,6.27
2023-11-16T18:10:49.710Z,4.80
2023-11-16T18:13:17.990Z,4.80
2023-11-16T18:15:45.221Z,3.20
2023-11-16T18:18:12.553Z,2.87
2023-11-16T18:20:41.211Z,3.10
2023-11-16T18:23:09.440Z,3.80
2023-11-16T18:25:41.269Z,3.60
2023-11-16T18:28:15.017Z,3.83
2023-11-16T18:30:43.943Z,3.30
2023-11-16T18:33:11.444Z,2.93
2023-11-16T18:35:42.281Z,3.13
2023-11-16T18:38:12.116Z,5.57
2023-11-16T18:40:41.122Z,4.73
2023-11-16T18:43:11.160Z,4.13
2023-11-16T18:45:38.698Z,3.53
2023-11-16T18:48:10.366Z,3.80
2023-11-16T18:50:38.508Z,3.70
2023-11-16T18:53:05.333Z,3.70
2023-11-16T18:55:32.424Z,3.97
2023-11-16T18:57:59.310Z,3.63
2023-11-16T19:00:26.804Z,3.80
2023-11-16T19:02:54.333Z,3.30
2023-11-16T19:05:21.999Z,3.20
2023-11-16T19:07:51.971Z,3.03
2023-11-16T19:10:21.965Z,2.97
2023-11-16T19:12:48.894Z,3.00
2023-11-16T19:15:15.772Z,3.23
2023-11-16T19:17:42.852Z,3.80
2023-11-16T19:20:15.679Z,5.37
2023-11-16T19:22:42.516Z,5.10
2023-11-16T19:25:10.367Z,3.30
2023-11-16T19:27:37.252Z,3.07
2023-11-16T19:30:04.451Z,2.77
2023-11-16T19:32:34.051Z,2.87
2023-11-16T19:35:00.848Z,3.70
2023-11-16T19:37:27.642Z,3.30
2023-11-16T19:39:54.426Z,3.97
2023-11-16T19:42:21.517Z,3.73
2023-11-16T19:44:48.306Z,3.80
2023-11-16T19:47:22.984Z,4.07
2023-11-16T19:49:52.666Z,4.30
2023-11-16T19:52:19.529Z,4.83
2023-11-16T19:54:46.369Z,5.90
2023-11-16T19:57:14.170Z,6.80
2023-11-16T19:59:40.908Z,7.10
2023-11-16T20:02:11.610Z,5.93
2023-11-16T20:04:40.093Z,4.30
2023-11-16T20:07:07.523Z,5.13
2023-11-16T20:09:36.546Z,4.30
2023-11-16T20:12:03.693Z,3.87
2023-11-16T20:14:31.228Z,4.20
2023-11-16T20:16:58.542Z,3.70
2023-11-16T20:19:25.615Z,4.30
2023-11-16T20:21:53.828Z,4.20
2023-11-16T20:24:22.717Z,5.80
2023-11-16T20:26:50.143Z,4.47
2023-11-16T20:29:17.995Z,3.10
2023-11-16T20:31:44.877Z,3.27
2023-11-16T20:34:14.425Z,3.20
2023-11-16T20:36:41.405Z,3.07
2023-11-16T20:39:09.987Z,3.00
2023-11-16T20:41:43.389Z,2.87
2023-11-16T20:44:10.828Z,2.40
2023-11-16T20:46:39.479Z,3.37
2023-11-16T20:49:06.377Z,2.90
2023-11-16T20:51:33.185Z,2.57
2023-11-16T20:54:00.000Z,2.87
2023-11-16T20:56:26.735Z,2.67
2023-11-16T20:58:53.574Z,2.80
2023-11-16T21:01:20.356Z,2.60
2023-11-16T21:03:47.239Z,2.37
2023-11-16T21:06:14.186Z,2.80
2023-11-16T21:08:40.934Z,2.40
2023-11-16T21:11:10.080Z,2.20
2023-11-16T21:13:42.969Z,2.60
2023-11-16T21:16:13.043Z,2.43
2023-11-16T21:18:39.880Z,2.33
2023-11-16T21:21:06.809Z,2.57
2023-11-16T21:23:37.936Z,3.27
2023-11-16T21:26:05.777Z,2.57
2023-11-16T21:28:32.553Z,2.80
2023-11-16T21:30:59.746Z,2.17
2023-11-16T21:33:28.404Z,2.60
2023-11-16T21:35:55.278Z,2.30
2023-11-16T21:38:22.623Z,2.00
2023-11-16T21:40:52.276Z,2.00
2023-11-16T21:43:19.263Z,2.33
2023-11-16T21:45:46.243Z,2.17
2023-11-16T21:48:13.561Z,3.20
2023-11-16T21:50:40.868Z,4.00
2023-11-16T21:53:12.755Z,2.83
2023-11-16T21:55:40.142Z,2.33
2023-11-16T21:58:07.008Z,2.70
2023-11-16T22:00:33.830Z,2.90
2023-11-16T22:03:00.914Z,2.37
2023-11-16T22:05:28.011Z,2.30
2023-11-16T22:07:54.850Z,2.03
2023-11-16T22:10:22.449Z,1.90
2023-11-16T22:12:53.535Z,1.87
2023-11-16T22:15:20.819Z,1.60
2023-11-16T22:17:49.756Z,1.90
2023-11-16T22:20:17.922Z,2.20
2023-11-16T22:22:47.383Z,2.43
2023-11-16T22:25:14.960Z,1.70
2023-11-16T22:27:43.813Z,2.17
2023-11-16T22:30:18.583Z,1.77
2023-11-16T22:32:46.436Z,1.63
2023-11-16T22:35:14.179Z,1.83
2023-11-16T22:37:42.104Z,1.80
2023-11-16T22:40:12.977Z,1.80
2023-11-16T22:42:40.995Z,2.10
2023-11-16T22:45:10.199Z,2.10
2023-11-16T22:47:37.963Z,2.20
2023-11-16T22:50:08.547Z,2.20
2023-11-16T22:52:36.916Z,1.77
2023-11-16T22:55:04.937Z,1.90
2023-11-16T22:57:31.949Z,1.73
2023-11-16T22:59:58.750Z,2.27
2023-11-16T23:02:28.907Z,2.23
2023-11-16T23:04:57.483Z,2.37
2023-11-16T23:07:24.488Z,2.57
2023-11-16T23:09:51.562Z,2.20
2023-11-16T23:12:18.468Z,2.30
2023-11-16T23:14:45.303Z,2.60
2023-11-16T23:17:12.983Z,2.83
2023-11-16T23:19:40.341Z,1.93
2023-11-16T23:22:12.881Z,2.60
2023-11-16T23:24:42.378Z,1.83
2023-11-16T23:27:13.813Z,2.00
2023-11-16T23:29:45.107Z,1.83
2023-11-16T23:32:12.658Z,1.47
2023-11-16T23:34:41.802Z,1.40
2023-11-16T23:37:11.903Z,1.03
2023-11-16T23:39:38.724Z,1.10
2023-11-16T23:42:05.926Z,0.90
2023-11-16T23:44:32.760Z,1.10
2023-11-16T23:47:01.471Z,0.83
2023-11-16T23:49:28.539Z,0.90
2023-11-16T23:51:55.375Z,0.80
2023-11-16T23:54:22.172Z,0.97
2023-11-16T23:56:48.952Z,0.87
2023-11-16T23:59:16.232Z,1.10
